Time;durP1;ratioP1;P1;durP2;ratioP2;P2;SDS_P1;SDS_P2;PMS_P1;PMS_P2;Temp;Humidity;BMP_temperature;BMP_pressure;BME280_temperature;BME280_humidity;BME280_pressure;Samples;Min_cycle;Max_cycle;Signal;HPM_P1;HPM_P2
2023/07/24 00:00:40;;;;;;;13.13;7.93;;;;;;;25.29;100.00;99418.91;5052004;28;20029;-83
2023/07/24 00:03:05;;;;;;;13.02;7.85;;;;;;;25.23;100.00;99415.31;5052070;28;20412;-83
2023/07/24 00:05:31;;;;;;;11.90;7.65;;;;;;;25.26;100.00;99414.03;5051532;28;20025;-83
2023/07/24 00:07:56;;;;;;;14.07;8.15;;;;;;;25.25;100.00;99412.38;5051867;28;20088;-82
2023/07/24 00:10:22;;;;;;;16.80;8.25;;;;;;;25.25;100.00;99412.38;5050964;28;20108;-83
2023/07/24 00:12:47;;;;;;;12.70;7.60;;;;;;;25.22;100.00;99408.25;5051852;28;20793;-82
2023/07/24 00:15:12;;;;;;;;;;;;;;;25.14;100.00;99405.13;5051809;28;19916;-81
2023/07/24 00:17:38;;;;;;;;;;;;;;;25.03;100.00;99398.72;5051273;28;19917;-81
2023/07/24 00:20:03;;;;;;;;;;;;;;;24.90;100.00;99408.97;5051959;28;19917;-82
2023/07/24 00:22:28;;;;;;;;;;;;;;;24.61;100.00;99410.78;5051666;28;19924;-82
2023/07/24 00:24:54;;;;;;;;;;;;;;;24.41;100.00;99411.13;5051328;28;20328;-80
2023/07/24 00:27:19;;;;;;;;;;;;;;;24.43;100.00;99403.63;5050051;28;20550;-81
2023/07/24 00:29:44;;;;;;;;;;;;;;;24.26;100.00;99413.50;5051580;28;20339;-80
2023/07/24 00:32:10;;;;;;;;;;;;;;;24.06;100.00;99420.00;5051678;28;19923;-81
2023/07/24 00:34:35;;;;;;;;;;;;;;;24.17;100.00;99406.75;5033383;28;19916;-82
2023/07/24 00:37:01;;;;;;;;;;;;;;;24.23;100.00;99403.16;5033600;28;19987;-82
2023/07/24 00:39:29;;;;;;;;;;;;;;;24.09;100.00;99416.84;5033142;28;19927;-80
2023/07/24 00:41:55;;;;;;;;;;;;;;;23.92;100.00;99412.38;5049445;28;20377;-81
2023/07/24 00:44:21;;;;;;;;;;;;;;;24.03;100.00;99398.91;5033097;28;19923;-81
2023/07/24 00:46:46;;;;;;;;;;;;;;;24.14;100.00;99393.78;5033504;28;20268;-81
2023/07/24 00:49:12;;;;;;;;;;;;;;;24.23;100.00;99397.78;5049905;28;19924;-81
2023/07/24 00:51:37;;;;;;;;;;;;;;;24.28;100.00;99392.50;5051084;28;19917;-81
2023/07/24 00:54:05;;;;;;;;;;;;;;;24.23;100.00;99397.78;5033596;28;19956;-82
2023/07/24 00:56:31;;;;;;;;;;;;;;;24.26;100.00;99381.13;5050388;28;19935;-82
2023/07/24 00:58:56;;;;;;;;;;;;;;;24.28;100.00;99362.84;5048710;28;19921;-82
2023/07/24 01:01:22;;;;;;;;;;;;;;;24.32;100.00;99369.41;5048585;28;19920;-82
2023/07/24 01:03:48;;;;;;;;;;;;;;;24.18;100.00;99384.16;5049180;28;20293;-81
2023/07/24 01:06:14;;;;;;;;;;;;;;;24.25;100.00;99384.88;5050771;28;19928;-82
2023/07/24 01:08:39;;;;;;;;;;;;;;;24.26;100.00;99381.97;5033101;28;19925;-83
2023/07/24 01:11:28;;;;;;;;;;;;;;;24.08;100.00;99390.97;5050920;28;19936;-82
2023/07/24 01:13:58;;;;;;;;;;;;;;;23.87;100.00;99382.59;5037954;28;19916;-82
2023/07/24 01:16:26;;;;;;;;;;;;;;;24.01;100.00;99368.69;5043229;28;19921;-82
2023/07/24 01:18:54;;;;;;;;;;;;;;;24.07;100.00;99356.16;5043325;28;20001;-81
2023/07/24 01:21:25;;;;;;;;;;;;;;;24.01;100.00;99347.13;5046567;28;20389;-81
2023/07/24 01:23:58;;;;;;;;;;;;;;;23.96;100.00;99335.41;5041854;28;19939;-83
2023/07/24 01:26:24;;;;;;;;;;;;;;;23.98;100.00;99342.19;5043307;28;19923;-83
2023/07/24 01:28:50;;;;;;;;;;;;;;;23.87;100.00;99345.69;5032499;28;19916;-82
2023/07/24 01:31:16;;;;;;;;;;;;;;;23.90;100.00;99344.44;5032179;28;19917;-82
2023/07/24 01:33:42;;;;;;;;;;;;;;;23.91;100.00;99340.69;5051024;28;19916;-82
2023/07/24 01:36:07;;;;;;;;;;;;;;;23.86;100.00;99346.75;5050515;28;19917;-81
2023/07/24 01:38:34;;;;;;;;;;;;;;;23.68;100.00;99342.28;5050244;28;19920;-81
2023/07/24 01:40:59;;;;;;;;;;;;;;;23.48;100.00;99330.22;5032754;28;20363;-81
2023/07/24 01:43:26;;;;;;;;;;;;;;;23.50;100.00;99285.03;5050730;28;19955;-81
2023/07/24 01:45:52;;;;;;;;;;;;;;;23.62;100.00;99218.50;5042778;28;19925;-82
2023/07/24 01:48:17;;;;;;;;;;;;;;;23.60;100.00;99234.91;5048959;28;19917;-83
2023/07/24 01:50:43;;;;;;;;;;;;;;;23.64;100.00;99281.03;5049101;28;19936;-80
2023/07/24 01:53:09;;;;;;;;;;;;;;;23.66;100.00;99292.41;5050359;28;20368;-82
2023/07/24 01:55:34;;;;;;;;;;;;;;;23.70;100.00;99290.88;5046204;28;19964;-82
2023/07/24 01:58:00;;;;;;;;;;;;;;;23.69;100.00;99297.31;5032273;28;19955;-81
2023/07/24 02:00:25;;;;;;;;;;;;;;;23.74;100.00;99327.06;5048426;28;19924;-82
2023/07/24 02:02:56;;;;;;;;;;;;;;;23.82;100.00;99309.72;5050451;28;19924;-82
2023/07/24 02:05:21;;;;;;;;;;;;;;;23.84;100.00;99305.75;5050051;28;19917;-82
2023/07/24 02:07:47;;;;;;;;;;;;;;;23.91;100.00;99311.88;5050303;28;19917;-82
2023/07/24 02:10:12;;;;;;;;;;;;;;;23.94;100.00;99321.34;5032413;28;19917;-82
2023/07/24 02:12:37;;;;;;;;;;;;;;;23.95;100.00;99337.28;5051925;28;20361;-83
2023/07/24 02:15:03;;;;;;;;;;;;;;;23.99;100.00;99362.69;5033644;28;19927;-83
2023/07/24 02:17:28;;;;;;;;;;;;;;;23.98;100.00;99381.78;5050031;28;19923;-83
2023/07/24 02:19:54;;;;;;;;;;;;;;;23.95;100.00;99401.97;5032467;28;19923;-83
2023/07/24 02:22:20;;;;;;;;;;;;;;;23.93;100.00;99403.22;5024123;28;20292;-83
2023/07/24 02:24:45;;;;;;;;;;;;;;;23.96;100.00;99418.94;5049188;28;19951;-82
2023/07/24 02:27:12;;;;;;;;;;;;;;;23.94;100.00;99421.06;5047281;28;19921;-83
2023/07/24 02:29:38;;;;;;;;;;;;;;;23.89;100.00;99423.63;5048594;28;19920;-83
2023/07/24 02:32:04;;;;;;;;;;;;;;;23.90;100.00;99426.09;5032148;28;19948;-82
2023/07/24 02:34:29;;;;;;;;;;;;;;;23.90;100.00;99415.31;5049751;28;19959;-82
2023/07/24 02:36:55;;;;;;;;;;;;;;;23.91;100.00;99405.34;5050238;28;19942;-83
2023/07/24 02:39:20;;;;;;;;;;;;;;;23.94;100.00;99394.91;5041511;28;19924;-83
2023/07/24 02:41:47;;;;;;;;;;;;;;;23.97;100.00;99389.09;5050478;28;19916;-82
2023/07/24 02:44:12;;;;;;;;;;;;;;;24.01;100.00;99379.47;5052617;28;19917;-83
2023/07/24 02:46:37;;;;;;;;;;;;;;;24.03;100.00;99363.84;5053291;28;20395;-82
2023/07/24 02:49:03;;;;;;;;;;;;;;;24.04;100.00;99341.25;5053487;28;20279;-80
2023/07/24 02:51:28;;;;;;;;;;;;;;;24.04;100.00;99329.66;5035267;28;20375;-81
2023/07/24 02:53:54;;;;;;;;;;;;;;;24.01;100.00;99298.59;5053547;28;20400;-80
2023/07/24 02:56:20;;;;;;;;;;;;;;;24.07;100.00;99286.88;5053382;28;19950;-81
2023/07/24 02:58:46;;;;;;;;;;;;;;;24.08;100.00;99266.97;5053306;28;19924;-80
2023/07/24 03:01:13;;;;;;;;;;;;;;;24.03;100.00;99247.97;5053433;28;20300;-81
2023/07/24 03:03:39;;;;;;;;;;;;;;;24.08;100.00;99253.50;5052866;28;19919;-81
2023/07/24 03:06:05;;;;;;;;;;;;;;;24.04;100.00;99238.00;5053309;28;19948;-81
2023/07/24 03:08:31;;;;;;;;;;;;;;;24.06;100.00;99236.72;5035200;28;19978;-81
2023/07/24 03:10:56;;;;;;;;;;;;;;;24.09;100.00;99251.63;5053099;28;19924;-81
2023/07/24 03:13:22;;;;;;;;;;;;;;;24.08;100.00;99242.69;5051548;28;20308;-81
2023/07/24 03:15:57;;;;;;;;;;;;;;;24.08;100.00;99229.22;5053135;28;19913;-81
2023/07/24 03:18:22;;;;;;;;;;;;;;;24.06;100.00;99260.16;5034582;28;19920;-80
2023/07/24 03:20:49;;;;;;;;;;;;;;;24.00;100.00;99280.78;5051396;28;19920;-81
2023/07/24 03:23:14;;;;;;;;;;;;;;;24.02;100.00;99285.94;5052763;28;19924;-82
2023/07/24 03:25:40;;;;;;;;;;;;;;;24.03;100.00;99288.38;5051820;28;20261;-81
2023/07/24 03:28:05;;;;;;;;;;;;;;;23.98;100.00;99282.91;5052884;28;20705;-82
2023/07/24 03:30:31;;;;;;;;;;;;;;;23.94;100.00;99287.13;5052605;28;20015;-82
2023/07/24 03:32:56;;;;;;;;;;;;;;;23.93;100.00;99268.50;5052507;28;19917;-82
2023/07/24 03:35:22;;;;;;;;;;;;;;;23.93;100.00;99258.53;5052266;28;19916;-82
2023/07/24 03:37:47;;;;;;;;;;;;;;;23.91;100.00;99265.22;5052580;28;19917;-83
2023/07/24 03:40:13;;;;;;;;;;;;;;;23.85;100.00;99250.81;5052546;28;20248;-82
2023/07/24 03:42:38;;;;;;;;;;;;;;;23.77;100.00;99250.34;5052315;28;20004;-84
2023/07/24 03:45:04;;;;;;;;;;;;;;;23.78;100.00;99254.69;5052322;28;20007;-82
2023/07/24 03:47:29;;;;;;;;;;;;;;;23.70;100.00;99258.53;5050885;28;19921;-81
2023/07/24 03:49:55;;;;;;;;;;;;;;;23.67;100.00;99237.47;5052050;28;19924;-82
2023/07/24 03:52:20;;;;;;;;;;;;;;;23.63;100.00;99241.69;5043709;28;19999;-82
2023/07/24 03:54:46;;;;;;;;;;;;;;;23.48;100.00;99238.66;5052006;28;19935;-81
2023/07/24 03:57:11;;;;;;;;;;;;;;;23.49;100.00;99240.28;5050983;28;19916;-82
2023/07/24 03:59:36;;;;;;;;;;;;;;;23.23;100.00;99271.94;5051607;28;19921;-82
2023/07/24 04:02:02;;;;;;;;;;;;;;;23.30;100.00;99262.94;5052302;28;20304;-82
2023/07/24 04:04:27;;;;;;;;;;;;;;;23.18;100.00;99263.75;5033643;28;19948;-81
2023/07/24 04:06:52;;;;;;;;;;;;;;;23.20;100.00;99291.25;5051947;28;20404;-83
2023/07/24 04:09:18;;;;;;;;;;;;;;;23.15;100.00;99312.63;5050331;28;19917;-82
2023/07/24 04:11:44;;;;;;;;;;;;;;;23.14;100.00;99340.63;5051963;28;19916;-82
2023/07/24 04:14:09;;;;;;;;;;;;;;;22.66;100.00;99347.88;5051706;28;19924;-81
2023/07/24 04:16:34;;;;;;;;;;;;;;;22.72;100.00;99357.75;5051188;28;19935;-83
2023/07/24 04:19:00;;;;;;;;;;;;;;;22.76;100.00;99351.69;5051723;28;19971;-81
2023/07/24 04:21:25;;;;;;;;;;;;;;;22.72;100.00;99341.63;5051268;28;19923;-82
2023/07/24 04:23:50;;;;;;;;;;;;;;;22.86;100.00;99327.75;5039454;28;19916;-82
2023/07/24 04:26:16;;;;;;;;;;;;;;;22.96;100.00;99299.50;5050082;28;19938;-82
2023/07/24 04:28:41;;;;;;;;;;;;;;;23.01;100.00;99287.00;5051210;28;19916;-83
2023/07/24 04:31:06;;;;;;;;;;;;;;;23.11;100.00;99273.78;5051680;28;19924;-83
2023/07/24 04:33:32;;;;;;;;;;;;;;;23.15;100.00;99271.47;5030999;28;20007;-81
2023/07/24 04:35:57;;;;;;;;;;;;;;;23.17;100.00;99280.13;5047689;28;19917;-82
2023/07/24 04:38:22;;;;;;;;;;;;;;;23.22;100.00;99273.00;5047517;28;20384;-81
2023/07/24 04:40:48;;;;;;;;;;;;;;;23.27;100.00;99267.72;5051420;28;20292;-81
2023/07/24 04:43:13;;;;;;;;;;;;;;;23.35;100.00;99260.38;5050950;28;19916;-81
2023/07/24 04:45:39;;;;;;;;;;;;;;;23.42;100.00;99261.09;5051336;28;19921;-80
2023/07/24 04:48:04;;;;;;;;;;;;;;;23.42;100.00;99266.47;5051336;28;19916;-81
2023/07/24 04:50:30;;;;;;;;;;;;;;;23.34;100.00;99275.69;5050816;28;19927;-81
2023/07/24 04:52:55;;;;;;;;;;;;;;;23.39;100.00;99293.84;5051041;28;19952;-83
2023/07/24 04:55:21;;;;;;;;;;;;;;;23.43;100.00;99295.03;5050843;28;19942;-83
2023/07/24 04:57:46;;;;;;;;;;;;;;;23.40;100.00;99295.50;5051267;28;19917;-84
2023/07/24 05:00:12;;;;;;;;;;;;;;;23.41;100.00;99297.13;5050733;28;19924;-84
2023/07/24 05:02:37;;;;;;;;;;;;;;;23.45;100.00;99295.63;5047603;28;19921;-85
2023/07/24 05:05:03;;;;;;;;;;;;;;;23.45;100.00;99282.16;5046978;28;19948;-84
2023/07/24 05:07:28;;;;;;;;;;;;;;;23.49;100.00;99278.00;5046267;28;19923;-86
2023/07/24 05:09:53;;;;;;;;;;;;;;;23.51;100.00;99265.09;5044681;28;19917;-87
2023/07/24 05:12:18;;;;;;;;;;;;;;;23.52;100.00;99245.19;5049615;28;19921;-84
2023/07/24 05:14:44;;;;;;;;;;;;;;;23.55;100.00;99244.75;5043024;28;19917;-84
2023/07/24 05:17:09;;;;;;;;;;;;;;;23.62;100.00;99230.06;5044814;28;20078;-83
2023/07/24 05:19:34;;;;;;;;;;;;;;;23.64;100.00;99222.59;5045944;28;19925;-84
2023/07/24 05:22:00;;;;;;;;;;;;;;;23.63;100.00;99225.50;5049796;28;19918;-86
2023/07/24 05:24:25;;;;;;;;;;;;;;;23.70;100.00;99217.31;5050380;28;19916;-86
2023/07/24 05:26:50;;;;;;;;;;;;;;;23.73;100.00;99220.38;5043015;28;19916;-86
2023/07/24 05:29:16;;;;;;;;;;;;;;;23.68;100.00;99212.97;5050423;28;19917;-82
2023/07/24 05:31:42;;;;;;;;;;;;;;;23.67;100.00;99221.31;5050781;28;19970;-82
2023/07/24 05:34:07;;;;;;;;;;;;;;;23.78;100.00;99233.97;5050825;28;19939;-82
2023/07/24 05:36:32;;;;;;;;;;;;;;;23.80;100.00;99248.00;5050605;28;20655;-82
2023/07/24 05:38:58;;;;;;;;;;;;;;;23.83;100.00;99257.50;5050536;28;19923;-83
2023/07/24 05:41:23;;;;;;;;;;;;;;;23.90;100.00;99275.19;5050943;28;20288;-84
2023/07/24 05:43:48;;;;;;;;;;;;;;;23.92;100.00;99278.44;5049197;28;19920;-84
2023/07/24 05:46:14;;;;;;;;;;;;;;;24.00;100.00;99280.78;5050441;28;20334;-83
2023/07/24 05:48:39;;;;;;;;;;;;;;;24.03;100.00;99274.91;5050424;28;19924;-83
2023/07/24 05:51:04;;;;;;;;;;;;;;;24.06;100.00;99285.25;5050874;28;20311;-80
2023/07/24 05:53:30;;;;;;;;;;;;;;;24.12;100.00;99279.94;5050208;28;20397;-78
2023/07/24 05:55:59;;;;;;;;;;;;;;;24.19;100.00;99288.78;5046137;28;19921;-78
2023/07/24 05:58:25;;;;;;;;;;;;;;;24.23;100.00;99284.53;5042219;28;19979;-75
2023/07/24 06:00:50;;;;;;;;;;;;;;;24.21;100.00;99275.88;5050172;28;20383;-75
2023/07/24 06:03:15;;;;;;;;;;;;;;;24.31;100.00;99265.31;5049680;28;19943;-76
2023/07/24 06:05:41;;;;;;;;;;;;;;;24.35;100.00;99277.25;5032036;28;20355;-77
2023/07/24 06:08:08;;;;;;;;;;;;;;;24.44;100.00;99281.22;5049784;28;20272;-76
2023/07/24 06:10:33;;;;;;;;;;;;;;;24.53;100.00;99285.16;5049056;28;19924;-78
2023/07/24 06:12:59;;;;;;;;;;;;;;;24.59;100.00;99278.81;5049692;28;19930;-78
2023/07/24 06:15:24;;;;;;;;;;;;;;;24.68;100.00;99277.34;5047707;28;19913;-75
2023/07/24 06:20:25;;;;;;;;;;;;;;;24.82;100.00;99262.53;5033509;28;19966;-82
2023/07/24 06:22:51;;;;;;;;;;;;;;;24.81;100.00;99251.97;5046194;28;19928;-83
2023/07/24 06:25:16;;;;;;;;;;;;;;;24.87;100.00;99246.41;5046306;28;19924;-84
2023/07/24 06:27:42;;;;;;;;;;;;;;;24.92;100.00;99229.53;5053185;28;20015;-84
2023/07/24 06:30:07;;;;;;;;;;;;;;;24.98;100.00;99238.53;5045709;28;19917;-82
2023/07/24 06:32:36;;;;;;;;;;;;;;;25.03;100.00;99246.72;5046654;28;19931;-85
2023/07/24 06:35:01;;;;;;;;;;;;;;;25.10;100.00;99259.00;5057786;28;19936;-85
2023/07/24 06:37:28;;;;;;;;;;;;;;;25.17;100.00;99258.84;5067159;28;19917;-85
2023/07/24 06:39:53;;;;;;;;;;;;;;;25.24;100.00;99259.50;5053846;28;19917;-87
2023/07/24 06:42:18;;;;;;;;;;;;;;;25.27;100.00;99259.03;5051738;28;19947;-80
2023/07/24 06:44:44;;;;;;;;;;;;;;;25.34;100.00;99258.84;5043809;28;19916;-77
2023/07/24 06:47:10;;;;;;;;;;;;;;;25.38;100.00;99255.44;5045369;28;19991;-79
2023/07/24 06:49:36;;;;;;;;;;;;;;;25.38;100.00;99249.19;5050131;28;19921;-80
2023/07/24 06:52:01;;;;;;;;;;;;;;;25.44;100.00;99254.44;5049275;28;19928;-78
2023/07/24 06:54:27;;;;;;;;;;;;;;;25.45;100.00;99256.06;5047534;28;19917;-79
2023/07/24 06:56:53;;;;;;;;;;;;;;;25.51;100.00;99260.47;5049912;28;19924;-76
2023/07/24 06:59:19;;;;;;;;;;;;;;;25.48;100.00;99260.97;5160043;22;20195;-78
2023/07/24 07:01:45;;;;;;;;;;;;;;;25.52;100.00;99272.91;5088290;28;19923;-78
2023/07/24 07:04:10;;;;;;;;;;;;;;;25.58;100.00;99271.16;5086728;28;19916;-77
2023/07/24 07:09:32;;;;;;;;;;;;;;;25.59;100.00;99278.19;5023419;28;19921;-79
2023/07/24 07:16:10;;;;;;;;;;;;;;;25.61;100.00;99287.69;5032805;28;19928;-81
2023/07/24 07:18:54;;;;;;;;;;;;;;;25.62;100.00;99288.53;4997307;28;19925;-82
2023/07/24 07:21:19;;;;;;;;;;;;;;;25.69;100.00;99284.56;5036569;28;19921;-82
2023/07/24 07:23:45;;;;;;;;;;;;;;;25.66;100.00;99295.06;5039485;28;19996;-83
2023/07/24 07:26:10;;;;;;;;;;;;;;;25.75;100.00;99292.75;5045733;28;19917;-83
2023/07/24 07:28:37;;;;;;;;;;;;;;;25.83;100.00;99297.75;5034676;28;19921;-83
2023/07/24 07:31:02;;;;;;;;;;;;;;;25.93;100.00;99300.59;5044119;28;20392;-82
2023/07/24 07:33:29;;;;;;;;;;;;;;;25.98;100.00;99284.44;5023290;28;19927;-81
2023/07/24 07:35:55;;;;;;;;;;;;;;;25.94;100.00;99286.00;5044804;28;19917;-81
2023/07/24 07:38:22;;;;;;;;;;;;;;;25.97;100.00;99277.41;5030556;28;19939;-83
2023/07/24 07:40:48;;;;;;;;;;;;;;;26.06;100.00;99281.31;5041002;28;20424;-83
2023/07/24 07:43:13;;;;;;;;;;;;;;;26.16;100.00;99270.63;5042131;28;19913;-83
2023/07/24 07:45:38;;;;;;;;;;;;;;;26.20;100.00;99260.13;5042159;28;19962;-81
2023/07/24 07:48:04;;;;;;;;;;;;;;;26.27;100.00;99250.00;5046743;28;19972;-80
2023/07/24 07:50:30;;;;;;;;;;;;;;;26.36;100.00;99246.56;5041472;28;19924;-82
2023/07/24 07:52:57;;;;;;;;;;;;;;;26.38;100.00;99259.84;5046816;28;19939;-81
2023/07/24 07:55:23;;;;;;;;;;;;;;;26.34;100.00;99262.22;5046512;28;19912;-78
2023/07/24 07:57:48;;;;;;;;;;;;;;;26.40;100.00;99269.34;5047299;28;19917;-82
2023/07/24 08:00:17;;;;;;;;;;;;;;;26.46;100.00;99268.34;5046658;28;19917;-88
2023/07/24 08:02:43;;;;;;;;;;;;;;;26.48;100.00;99277.03;5028573;28;19928;-87
2023/07/24 08:05:09;;;;;;;;;;;;;;;26.55;100.00;99290.38;5038998;28;20385;-83
2023/07/24 08:07:35;;;;;;;;;;;;;;;26.58;100.00;99302.56;5033366;28;19924;-83
2023/07/24 08:10:01;;;;;;;;;;;;;;;26.57;100.00;99303.66;5034181;28;19920;-78
2023/07/24 08:12:26;;;;;;;;;;;;;;;26.60;100.00;99301.25;5033788;28;20465;-77
2023/07/24 08:14:52;;;;;;;;;;;;;;;26.60;100.00;99306.66;5032351;28;19966;-78
2023/07/24 08:17:17;;;;;;;;;;;;;;;26.64;100.00;99296.94;5014447;28;19917;-78
2023/07/24 08:19:42;;;;;;;;;;;;;;;26.65;100.00;99304.00;5031898;28;20381;-78
2023/07/24 08:22:08;;;;;;;;;;;;;;;26.71;100.00;99307.59;5032118;28;20014;-76
2023/07/24 08:24:35;;;;;;;;;;;;;;;26.70;100.00;99303.25;5031687;28;20271;-77
2023/07/24 08:27:00;;;;;;;;;;;;;;;26.67;100.00;99295.63;5032179;28;19913;-78
2023/07/24 08:29:25;;;;;;;;;;;;;;;26.67;100.00;99298.34;5032227;28;20051;-77
2023/07/24 08:31:51;;;;;;;;;;;;;;;26.65;100.00;99292.34;5033819;28;20292;-78
2023/07/24 08:34:16;;;;;;;;;;;;;;;26.60;100.00;99289.59;5032370;28;19983;-77
2023/07/24 08:36:41;;;;;;;;;;;;;;;26.61;100.00;99275.00;5032536;28;20443;-76
2023/07/24 08:39:07;;;;;;;;;;;;;;;26.59;100.00;99266.31;5031916;28;20366;-75
2023/07/24 08:41:34;;;;;;;;;;;;;;;26.60;100.00;99249.00;5031654;28;20314;-77
2023/07/24 08:43:59;;;;;;;;;;;;;;;26.56;100.00;99256.81;5031959;28;19921;-78
2023/07/24 08:46:25;;;;;;;;;;;;;;;26.56;100.00;99261.41;5030973;28;19917;-78
2023/07/24 08:48:52;;;;;;;;;;;;;;;26.55;100.00;99254.38;5030899;28;19917;-78
2023/07/24 08:51:18;;;;;;;;;;;;;;;26.52;100.00;99249.44;5031095;28;20003;-78
2023/07/24 08:53:44;;;;;;;;;;;;;;;26.43;100.00;99239.09;5031405;28;19923;-77
2023/07/24 08:56:12;;;;;;;;;;;;;;;26.40;100.00;99234.16;5031404;28;19999;-77
2023/07/24 08:58:39;;;;;;;;;;;;;;;26.37;100.00;99239.28;5030852;28;19995;-77
2023/07/24 09:01:05;;;;;;;;;;;;;;;26.37;100.00;99237.41;5031317;28;19917;-77
2023/07/24 09:03:31;;;;;;;;;;;;;;;26.36;100.00;99235.75;5030312;28;20028;-78
2023/07/24 09:05:57;;;;;;;;;;;;;;;26.34;100.00;99231.66;5031180;28;19917;-77
2023/07/24 09:08:32;;;;;;;;;;;;;;;26.31;100.00;99221.34;5030546;28;19917;-77
2023/07/24 09:10:59;;;;;;;;;;;;;;;26.28;100.00;99233.47;5024685;28;19923;-77
2023/07/24 09:13:24;;;;;;;;;;;;;;;26.22;100.00;99223.63;5030790;28;19913;-77
2023/07/24 09:15:50;;;;;;;;;;;;;;;26.16;100.00;99202.19;5030608;28;19962;-77
2023/07/24 09:18:16;;;;;;;;;;;;;;;26.11;100.00;99194.84;5030371;28;19940;-77
2023/07/24 09:20:42;;;;;;;;;;;;;;;26.15;100.00;99214.09;5012391;28;19967;-79
2023/07/24 09:23:08;;;;;;;;;;;;;;;26.22;100.00;99195.78;5012174;28;19917;-84
2023/07/24 09:25:35;;;;;;;;;;;;;;;26.26;100.00;99170.72;5031624;28;20427;-83
2023/07/24 09:28:00;;;;;;;;;;;;;;;26.29;100.00;99181.03;5028082;28;20361;-80
2023/07/24 09:30:26;;;;;;;;;;;;;;;26.26;100.00;99181.53;5028876;28;19928;-80
2023/07/24 09:32:52;;;;;;;;;;;;;;;26.26;100.00;99186.97;5028809;28;19948;-78
2023/07/24 09:35:18;;;;;;;;;;;;;;;26.17;100.00;99210.06;5030167;28;19925;-79
2023/07/24 09:37:43;;;;;;;;;;;;;;;26.18;100.00;99227.09;5030690;28;20018;-77
2023/07/24 09:40:09;;;;;;;;;;;;;;;26.15;100.00;99190.59;5031016;28;19923;-74
2023/07/24 09:42:35;;;;;;;;;;;;;;;26.13;100.00;99181.91;5012845;28;20383;-79
2023/07/24 09:45:02;;;;;;;;;;;;;;;26.18;100.00;99181.94;5030794;28;19917;-78
2023/07/24 09:47:28;;;;;;;;;;;;;;;26.21;100.00;99194.97;5013095;28;19928;-78
2023/07/24 09:49:53;;;;;;;;;;;;;;;26.21;100.00;99194.97;5030367;28;20284;-78
2023/07/24 09:52:19;;;;;;;;;;;;;;;26.21;100.00;99194.97;5028988;28;19921;-78
2023/07/24 09:54:51;;;;;;;;;;;;;;;26.22;100.00;99190.38;5029121;28;19971;-79
2023/07/24 09:57:17;;;;;;;;;;;;;;;26.20;100.00;99150.06;5028330;28;19921;-78
2023/07/24 09:59:43;;;;;;;;;;;;;;;26.19;100.00;99161.97;5028255;28;20702;-81
2023/07/24 10:02:11;;;;;;;;;;;;;;;26.19;100.00;99175.47;5012656;28;20011;-84
2023/07/24 10:04:37;;;;;;;;;;;;;;;26.14;100.00;99205.16;5031331;28;20365;-84
2023/07/24 10:07:04;;;;;;;;;;;;;;;26.14;100.00;99183.53;5031403;28;20270;-86
2023/07/24 10:09:30;;;;;;;;;;;;;;;26.11;100.00;99173.22;5031555;28;19917;-83
2023/07/24 10:11:57;;;;;;;;;;;;;;;26.09;100.00;99191.59;5031824;28;19917;-83
2023/07/24 10:14:22;;;;;;;;;;;;;;;26.04;100.00;99210.44;5031463;28;20362;-82
2023/07/24 10:16:49;;;;;;;;;;;;;;;25.98;100.00;99231.19;5031337;28;19917;-83
2023/07/24 10:19:15;;;;;;;;;;;;;;;25.93;100.00;99257.34;5030932;28;20413;-83
2023/07/24 10:21:45;;;;;;;;;;;;;;;25.89;100.00;99269.72;5033451;28;20396;-84
2023/07/24 10:24:10;;;;;;;;;;;;;;;25.87;100.00;99220.47;5015427;28;20277;-83
2023/07/24 10:26:36;;;;;;;;;;;;;;;25.86;100.00;99198.03;5011500;28;19928;-83
2023/07/24 10:29:02;;;;;;;;;;;;;;;25.90;100.00;99204.59;5032572;28;19917;-81
2023/07/24 10:31:28;;;;;;;;;;;;;;;25.91;100.00;99203.53;5032980;28;20377;-86
2023/07/24 10:33:53;;;;;;;;;;;;;;;25.92;100.00;99212.47;5031927;28;19917;-83
2023/07/24 10:36:22;;;;;;;;;;;;;;;25.80;100.00;99276.63;5031577;28;19965;-84
2023/07/24 10:38:53;;;;;;;;;;;;;;;25.65;100.00;99232.09;5031522;28;19917;-84
2023/07/24 10:41:18;;;;;;;;;;;;;;;25.60;100.00;99161.78;5030555;28;20105;-77
2023/07/24 10:43:44;;;;;;;;;;;;;;;25.67;100.00;99194.84;5028907;28;19924;-79
2023/07/24 10:46:10;;;;;;;;;;;;;;;25.69;100.00;99176.47;5028401;28;19923;-78
2023/07/24 10:48:36;;;;;;;;;;;;;;;25.73;100.00;99159.78;5013926;28;19921;-77
2023/07/24 10:51:09;;;;;;;;;;;;;;;25.80;100.00;99133.38;5036577;28;19924;-76
2023/07/24 10:53:36;;;;;;;;;;;;;;;25.80;100.00;99149.59;5036943;28;19931;-78
2023/07/24 10:56:01;;;;;;;;;;;;;;;25.83;100.00;99149.91;5034807;28;20296;-77
2023/07/24 10:58:27;;;;;;;;;;;;;;;25.88;100.00;99143.72;5011505;28;19917;-77
2023/07/24 11:00:52;;;;;;;;;;;;;;;25.90;100.00;99133.50;4991798;28;19917;-77
2023/07/24 11:03:18;;;;;;;;;;;;;;;25.94;100.00;99103.00;5030508;28;19923;-77
2023/07/24 11:05:44;;;;;;;;;;;;;;;26.03;100.00;99122.31;5033039;28;19944;-78
2023/07/24 11:08:14;;;;;;;;;;;;;;;26.12;100.00;99112.66;5032629;28;20316;-77
2023/07/24 11:10:53;;;;;;;;;;;;;;;26.24;100.00;99102.53;5015070;28;20634;-77
2023/07/24 11:13:23;;;;;;;;;;;;;;;26.35;100.00;99109.69;5032748;28;19920;-77
2023/07/24 11:15:49;;;;;;;;;;;;;;;26.47;100.00;99096.00;5032418;28;19921;-77
2023/07/24 11:18:14;;;;;;;;;;;;;;;26.57;100.00;99100.69;5032872;28;19923;-77
2023/07/24 11:21:08;;;;;;;;;;;;;;;26.54;100.00;99101.19;5032568;28;19979;-77
2023/07/24 11:23:33;;;;;;;;;;;;;;;26.43;100.00;99116.53;5028891;28;19924;-76
2023/07/24 11:26:00;;;;;;;;;;;;;;;26.32;100.00;99115.63;5032711;28;19917;-79
2023/07/24 11:28:25;;;;;;;;;;;;;;;26.22;100.00;99138.97;5014686;28;19968;-78
2023/07/24 11:30:51;;;;;;;;;;;;;;;26.08;100.00;99122.34;5032796;28;19960;-79
2023/07/24 11:33:17;;;;;;;;;;;;;;;26.04;100.00;99124.72;5032345;28;19917;-79
2023/07/24 11:35:43;;;;;;;;;;;;;;;26.03;100.00;99111.50;5032429;28;19916;-78
2023/07/24 11:38:11;;;;;;;;;;;;;;;26.05;100.00;99087.69;5032691;28;19921;-79
2023/07/24 11:40:38;;;;;;;;;;;;;;;26.05;100.00;99098.50;5032018;28;20289;-77
2023/07/24 11:43:04;;;;;;;;;;;;;;;26.01;100.00;99103.63;5033164;28;20321;-78
2023/07/24 11:45:30;;;;;;;;;;;;;;;25.96;100.00;99100.06;5031837;28;19921;-80
2023/07/24 11:47:56;;;;;;;;;;;;;;;25.95;100.00;99109.22;5032703;28;19999;-81
2023/07/24 11:50:22;;;;;;;;;;;;;;;25.97;100.00;99080.06;5032384;28;20348;-80
2023/07/24 11:52:49;;;;;;;;;;;;;;;26.08;100.00;99049.34;5033048;28;19939;-81
2023/07/24 11:55:18;;;;;;;;;;;;;;;26.26;100.00;99051.72;5032132;28;20293;-79
2023/07/24 11:57:54;;;;;;;;;;;;;;;26.46;100.00;99051.88;5032506;28;19917;-80
2023/07/24 12:00:21;;;;;;;;;;;;;;;26.59;100.00;99060.66;5032369;28;20358;-83
2023/07/24 12:02:46;;;;;;;;;;;;;;;26.59;100.00;99066.06;5032757;28;20321;-82
2023/07/24 12:05:12;;;;;;;;;;;;;;;26.54;100.00;99079.53;5032413;28;19916;-79
2023/07/24 12:07:37;;;;;;;;;;;;;;;26.46;100.00;99078.94;5014362;28;20010;-82
2023/07/24 12:10:05;;;;;;;;;;;;;;;26.43;100.00;99084.06;5032866;28;19916;-87
2023/07/24 12:12:43;;;;;;;;;;;;;;;26.38;100.00;99090.25;5015041;28;19939;-86
2023/07/24 12:15:09;;;;;;;;;;;;;;;26.17;100.00;99093.78;5031955;28;20016;-85
2023/07/24 12:17:34;;;;;;;;;;;;;;;26.19;100.00;99094.34;5024194;28;20056;-86
2023/07/24 12:20:00;;;;;;;;;;;;;;;26.17;100.00;99096.47;5032555;28;19917;-85
2023/07/24 12:22:25;;;;;;;;;;;;;;;26.03;100.00;99090.69;5033519;28;20012;-86
2023/07/24 12:24:51;;;;;;;;;;;;;;;25.89;100.00;99083.19;5033733;28;19917;-85
2023/07/24 12:27:16;;;;;;;;;;;;;;;25.82;100.00;99079.88;5033103;28;19923;-87
2023/07/24 12:29:41;;;;;;;;;;;;;;;25.81;100.00;99075.53;5015245;28;20322;-88
2023/07/24 12:32:07;;;;;;;;;;;;;;;25.86;100.00;99065.59;5033902;28;19917;-88
2023/07/24 12:34:32;;;;;;;;;;;;;;;25.93;100.00;99038.38;5016259;28;19927;-83
2023/07/24 12:36:58;;;;;;;;;;;;;;;26.00;100.00;99025.47;5034472;28;19920;-87
2023/07/24 12:39:23;;;;;;;;;;;;;;;26.16;100.00;99013.72;5032794;28;19971;-87